Time;durP1;ratioP1;P1;durP2;ratioP2;P2;SDS_P1;SDS_P2;PMS_P1;PMS_P2;Temp;Humidity;BMP_temperature;BMP_pressure;BME280_temperature;BME280_humidity;BME280_pressure;Samples;Min_cycle;Max_cycle;Signal;HPM_P1;HPM_P2
2022/11/26 00:00:45;;;;;;;62.23;41.23;;;8.60;99.90;;;;;;5021036;28;20042;-79
2022/11/26 00:03:12;;;;;;;72.57;44.03;;;8.50;99.90;;;;;;5004906;28;20026;-79
2022/11/26 00:05:38;;;;;;;61.67;40.97;;;8.50;99.90;;;;;;5005083;28;20049;-79
2022/11/26 00:08:29;;;;;;;63.73;42.70;;;8.60;99.90;;;;;;5012717;28;20022;-79
2022/11/26 00:10:55;;;;;;;68.90;43.78;;;8.70;99.90;;;;;;5002239;28;20035;-79
2022/11/26 00:13:23;;;;;;;66.00;42.67;;;8.50;99.90;;;;;;4987881;28;20035;-79
2022/11/26 00:15:50;;;;;;;67.33;41.13;;;8.60;99.90;;;;;;5007516;28;20490;-79
2022/11/26 00:18:16;;;;;;;58.03;41.77;;;8.50;99.90;;;;;;4974129;28;20046;-79
2022/11/26 00:20:43;;;;;;;58.67;43.07;;;8.30;99.90;;;;;;4974898;28;20042;-79
2022/11/26 00:23:19;;;;;;;61.93;44.00;;;7.90;99.90;;;;;;5023614;28;20029;-79
2022/11/26 00:25:56;;;;;;;60.10;42.80;;;7.80;99.90;;;;;;5007177;28;20415;-79
2022/11/26 00:28:22;;;;;;;66.60;44.97;;;8.00;99.90;;;;;;4986481;28;20034;-79
2022/11/26 00:30:48;;;;;;;62.67;42.33;;;8.20;99.90;;;;;;4991634;28;20026;-79
2022/11/26 00:33:14;;;;;;;61.77;42.77;;;8.20;99.90;;;;;;5007152;28;20045;-79
2022/11/26 00:35:40;;;;;;;57.63;39.30;;;8.30;99.90;;;;;;4991261;28;20041;-79
2022/11/26 00:38:09;;;;;;;57.77;41.13;;;8.40;99.90;;;;;;5006438;28;20030;-79
2022/11/26 00:40:35;;;;;;;52.07;39.63;;;8.50;99.90;;;;;;5023905;28;20375;-79
2022/11/26 00:43:02;;;;;;;52.33;38.13;;;8.50;99.90;;;;;;4991068;28;20046;-79
2022/11/26 00:45:29;;;;;;;55.00;39.43;;;8.60;99.90;;;;;;4991244;28;20038;-79
2022/11/26 00:47:59;;;;;;;65.10;41.43;;;8.50;99.90;;;;;;4974915;28;20030;-79
2022/11/26 00:50:25;;;;;;;57.93;40.07;;;8.50;99.90;;;;;;4991719;28;20030;-79
2022/11/26 00:52:55;;;;;;;52.00;37.23;;;8.50;99.90;;;;;;5007139;28;20045;-79
2022/11/26 00:55:32;;;;;;;48.73;38.07;;;8.50;99.90;;;;;;5019064;28;20031;-79
2022/11/26 00:57:58;;;;;;;46.83;38.30;;;8.40;99.90;;;;;;4994338;28;20380;-79
2022/11/26 01:00:28;;;;;;;46.70;37.33;;;8.30;99.90;;;;;;5005172;28;20030;-79
2022/11/26 01:02:54;;;;;;;44.33;38.60;;;8.20;99.90;;;;;;4974253;28;20035;-79
2022/11/26 01:05:22;;;;;;;47.90;38.63;;;8.10;99.90;;;;;;4990158;28;20024;-79
2022/11/26 01:07:48;;;;;;;49.70;38.70;;;8.20;99.90;;;;;;4977369;28;20022;-79
2022/11/26 01:10:21;;;;;;;49.17;38.57;;;8.30;99.90;;;;;;5025094;28;20034;-79
2022/11/26 01:12:48;;;;;;;51.47;38.33;;;8.40;99.90;;;;;;5010145;28;20483;-79
2022/11/26 01:15:14;;;;;;;49.97;36.57;;;8.30;99.90;;;;;;5009336;28;20027;-79
2022/11/26 01:17:40;;;;;;;48.10;37.93;;;8.50;99.90;;;;;;4975755;28;20038;-79
2022/11/26 01:20:28;;;;;;;45.80;38.07;;;8.50;99.90;;;;;;5027375;28;20033;-79
2022/11/26 01:22:55;;;;;;;52.40;38.33;;;8.50;99.90;;;;;;5005743;28;20049;-79
2022/11/26 01:25:22;;;;;;;52.03;35.97;;;8.60;99.90;;;;;;4993846;28;20042;-79
2022/11/26 01:27:48;;;;;;;44.80;36.57;;;8.60;99.90;;;;;;4976163;28;20038;-79
2022/11/26 01:30:19;;;;;;;46.20;37.23;;;8.50;99.90;;;;;;5010503;28;20057;-79
2022/11/26 01:32:45;;;;;;;48.17;39.88;;;8.30;99.90;;;;;;5009666;28;20491;-79
2022/11/26 01:35:11;;;;;;;45.83;36.63;;;8.20;99.90;;;;;;5008619;28;20042;-79
2022/11/26 01:37:38;;;;;;;46.00;37.22;;;8.40;99.90;;;;;;4994203;28;20038;-79
2022/11/26 01:40:27;;;;;;;44.63;36.83;;;8.40;99.90;;;;;;4993409;28;20039;-79
2022/11/26 01:43:10;;;;;;;39.87;34.63;;;8.40;99.90;;;;;;5007756;28;20514;-79
2022/11/26 01:45:36;;;;;;;43.13;33.60;;;8.40;99.90;;;;;;5006190;28;20038;-79
2022/11/26 01:48:21;;;;;;;37.33;33.30;;;8.50;99.90;;;;;;4976967;28;20030;-79
2022/11/26 01:50:51;;;;;;;37.47;33.50;;;8.50;99.90;;;;;;4962493;28;20483;-79
2022/11/26 01:53:26;;;;;;;39.83;32.53;;;8.50;99.90;;;;;;5009069;28;20501;-79
2022/11/26 01:56:01;;;;;;;40.50;33.37;;;8.60;99.90;;;;;;5021906;28;20034;-79
2022/11/26 01:58:31;;;;;;;40.23;33.77;;;8.40;99.90;;;;;;4990511;28;20030;-79
2022/11/26 02:00:57;;;;;;;40.07;33.93;;;8.30;99.90;;;;;;5024608;28;20038;-79
2022/11/26 02:03:23;;;;;;;38.13;30.90;;;8.30;99.90;;;;;;5009836;28;20498;-79
2022/11/26 02:05:58;;;;;;;35.73;31.97;;;8.40;99.90;;;;;;5008028;28;20030;-79
2022/11/26 02:08:25;;;;;;;35.63;31.67;;;8.50;99.90;;;;;;5025542;28;20034;-79
2022/11/26 02:10:52;;;;;;;36.40;32.57;;;8.30;99.90;;;;;;5008275;28;20038;-79
2022/11/26 02:13:18;;;;;;;37.43;32.30;;;8.10;99.90;;;;;;4993306;28;20038;-79
2022/11/26 02:16:13;;;;;;;39.33;34.00;;;8.00;99.90;;;;;;5008091;28;20360;-79
2022/11/26 02:18:41;;;;;;;33.83;30.37;;;8.10;99.90;;;;;;4975010;28;20395;-78
2022/11/26 02:21:33;;;;;;;33.73;30.20;;;8.30;99.90;;;;;;5008226;28;20022;-78
2022/11/26 02:24:21;;;;;;;35.03;31.43;;;8.40;99.90;;;;;;5006353;28;20038;-79
2022/11/26 02:26:58;;;;;;;33.90;30.13;;;8.20;99.90;;;;;;4992497;28;20051;-79
2022/11/26 02:30:02;;;;;;;35.13;31.53;;;8.10;99.90;;;;;;4993617;28;20034;-79
2022/11/26 02:32:41;;;;;;;33.53;30.10;;;8.20;99.90;;;;;;5010010;28;20046;-79
2022/11/26 02:35:28;;;;;;;34.23;28.73;;;8.30;99.90;;;;;;4995178;28;20049;-79
2022/11/26 02:38:00;;;;;;;39.37;30.73;;;8.30;99.90;;;;;;5009845;28;20038;-79
2022/11/26 02:40:26;;;;;;;38.33;29.20;;;8.30;99.90;;;;;;4994461;28;20053;-79
2022/11/26 02:42:52;;;;;;;35.83;29.83;;;8.10;99.90;;;;;;4989315;28;20498;-79
2022/11/26 02:45:21;;;;;;;34.27;30.20;;;8.00;99.90;;;;;;4993582;28;20045;-79
2022/11/26 02:47:49;;;;;;;32.13;28.30;;;8.10;99.90;;;;;;5007149;28;20042;-79
2022/11/26 02:50:21;;;;;;;33.37;29.20;;;8.20;99.90;;;;;;4959911;28;20038;-79
2022/11/26 02:52:47;;;;;;;35.40;28.98;;;8.20;99.90;;;;;;4993834;28;20061;-79
2022/11/26 02:55:13;;;;;;;34.67;29.47;;;8.30;99.90;;;;;;4993116;28;20034;-79
2022/11/26 02:57:47;;;;;;;35.03;29.97;;;8.30;99.90;;;;;;4967542;28;20061;-79
2022/11/26 03:00:14;;;;;;;36.97;29.65;;;8.20;99.90;;;;;;4992783;28;20418;-79
2022/11/26 03:02:44;;;;;;;32.53;29.05;;;8.20;99.90;;;;;;4966037;28;20412;-79
2022/11/26 03:05:11;;;;;;;34.90;29.95;;;8.20;99.90;;;;;;5002461;28;20036;-79
2022/11/26 03:07:37;;;;;;;30.60;27.45;;;8.30;99.90;;;;;;4999703;28;20038;-79
2022/11/26 03:10:03;;;;;;;32.77;28.13;;;8.40;99.90;;;;;;4971589;28;20372;-79
2022/11/26 03:12:29;;;;;;;31.97;28.67;;;8.30;99.90;;;;;;4977281;28;20038;-79
2022/11/26 03:14:56;;;;;;;32.53;29.38;;;8.30;99.90;;;;;;5006807;28;20034;-79
2022/11/26 03:17:22;;;;;;;32.37;29.13;;;8.40;99.90;;;;;;4998459;28;20038;-79
2022/11/26 03:19:49;;;;;;;33.07;29.67;;;8.40;99.90;;;;;;4991220;28;20039;-79
2022/11/26 03:22:15;;;;;;;29.87;27.13;;;8.20;99.90;;;;;;5020160;28;20026;-79
2022/11/26 03:24:41;;;;;;;32.90;29.60;;;8.00;99.90;;;;;;4984268;28;20053;-79
2022/11/26 03:27:07;;;;;;;32.40;29.20;;;8.00;99.90;;;;;;4995428;28;20084;-79
2022/11/26 03:29:33;;;;;;;32.43;27.67;;;8.20;99.90;;;;;;5018610;28;20041;-79
2022/11/26 03:31:59;;;;;;;32.70;29.43;;;8.20;99.90;;;;;;4990262;28;20056;-80
2022/11/26 03:34:26;;;;;;;34.47;27.57;;;8.20;99.90;;;;;;5006814;28;20030;-79
2022/11/26 03:36:52;;;;;;;32.00;28.23;;;8.30;99.90;;;;;;4990724;28;20033;-79
2022/11/26 03:39:18;;;;;;;31.67;28.50;;;8.30;99.90;;;;;;4990833;28;20037;-79
2022/11/26 03:41:44;;;;;;;35.30;30.47;;;8.30;99.90;;;;;;4992302;28;20438;-79
2022/11/26 03:44:10;;;;;;;35.83;30.93;;;8.30;99.90;;;;;;4988469;28;20069;-79
2022/11/26 03:46:37;;;;;;;33.37;30.07;;;8.20;99.90;;;;;;4959810;28;20401;-79
2022/11/26 03:49:03;;;;;;;34.33;28.30;;;8.10;99.90;;;;;;5024423;28;20475;-79
2022/11/26 03:51:29;;;;;;;31.20;27.87;;;8.00;99.90;;;;;;4991407;28;20039;-79
2022/11/26 03:53:55;;;;;;;32.47;29.10;;;8.10;99.90;;;;;;5004400;28;20042;-79
2022/11/26 03:56:21;;;;;;;34.47;30.33;;;8.20;99.90;;;;;;4975623;28;20086;-79
2022/11/26 03:58:47;;;;;;;34.40;29.03;;;8.30;99.90;;;;;;4992610;28;20034;-79
2022/11/26 04:01:13;;;;;;;35.43;30.33;;;8.30;99.90;;;;;;5007298;28;20042;-79
2022/11/26 04:03:39;;;;;;;40.80;31.47;;;8.30;99.90;;;;;;5007080;28;20037;-79
2022/11/26 04:06:06;;;;;;;34.90;28.43;;;8.40;99.90;;;;;;5007509;28;20045;-79
2022/11/26 04:08:32;;;;;;;35.27;29.93;;;8.40;99.90;;;;;;4991131;28;20042;-80
2022/11/26 04:10:58;;;;;;;37.40;32.73;;;8.40;99.90;;;;;;5006106;28;20049;-80
2022/11/26 04:13:24;;;;;;;34.20;30.27;;;8.20;99.90;;;;;;5003957;28;20038;-80
2022/11/26 04:15:50;;;;;;;33.27;29.80;;;8.00;99.90;;;;;;4987520;28;20050;-78
2022/11/26 04:18:16;;;;;;;33.70;30.10;;;7.80;99.90;;;;;;4957248;28;20050;-78
2022/11/26 04:20:42;;;;;;;37.43;30.53;;;7.80;99.90;;;;;;4974574;28;20030;-78
2022/11/26 04:23:08;;;;;;;37.07;30.57;;;7.60;99.90;;;;;;5003825;28;20043;-79
2022/11/26 04:25:34;;;;;;;38.60;31.40;;;7.70;99.90;;;;;;4989504;28;20054;-78
2022/11/26 04:28:00;;;;;;;35.17;29.40;;;7.70;99.90;;;;;;4992911;28;20042;-79
2022/11/26 04:30:27;;;;;;;34.60;31.13;;;7.80;99.90;;;;;;4991199;28;20053;-79
2022/11/26 04:32:53;;;;;;;37.30;32.43;;;7.90;99.90;;;;;;4990701;28;20472;-79
2022/11/26 04:35:19;;;;;;;34.60;30.40;;;7.80;99.90;;;;;;4990871;28;20030;-79
2022/11/26 04:37:45;;;;;;;40.80;31.90;;;7.80;99.90;;;;;;4990444;28;20046;-79
2022/11/26 04:40:11;;;;;;;36.73;32.77;;;7.70;99.90;;;;;;4991528;28;20031;-79
2022/11/26 04:42:37;;;;;;;35.50;31.93;;;7.80;99.90;;;;;;5010395;28;20034;-79
2022/11/26 04:45:04;;;;;;;35.70;31.83;;;7.80;99.90;;;;;;5009479;28;20026;-79
2022/11/26 04:47:30;;;;;;;35.67;31.33;;;7.70;99.90;;;;;;5011419;28;20073;-79
2022/11/26 04:49:56;;;;;;;36.80;32.30;;;7.60;99.90;;;;;;5011600;28;20038;-79
2022/11/26 04:52:22;;;;;;;35.30;31.70;;;7.50;99.90;;;;;;4995283;28;20053;-79
2022/11/26 04:54:48;;;;;;;38.07;31.17;;;7.40;99.90;;;;;;5011732;28;20042;-79
2022/11/26 04:57:14;;;;;;;39.30;30.50;;;7.40;99.90;;;;;;4995290;28;20046;-79
2022/11/26 04:59:40;;;;;;;36.73;30.90;;;7.30;99.90;;;;;;4995955;28;20030;-79
2022/11/26 05:02:06;;;;;;;38.03;31.03;;;7.10;99.90;;;;;;5010297;28;20034;-79
2022/11/26 05:04:32;;;;;;;36.97;30.20;;;7.10;99.90;;;;;;4994938;28;20031;-79
2022/11/26 05:06:59;;;;;;;36.40;30.47;;;7.10;99.90;;;;;;4995281;28;20023;-79
2022/11/26 05:09:25;;;;;;;41.50;31.33;;;7.20;99.90;;;;;;4996453;28;20042;-79
2022/11/26 05:11:51;;;;;;;38.00;30.70;;;7.30;99.90;;;;;;4993105;28;20054;-79
2022/11/26 05:14:17;;;;;;;35.40;29.10;;;7.50;99.90;;;;;;5006755;28;20038;-79
2022/11/26 05:16:43;;;;;;;34.67;30.73;;;7.50;99.90;;;;;;5002843;28;20037;-79
2022/11/26 05:19:09;;;;;;;34.83;30.97;;;7.40;99.90;;;;;;5011409;28;20031;-79
2022/11/26 05:21:35;;;;;;;35.63;31.77;;;7.40;99.90;;;;;;5011159;28;20041;-79
2022/11/26 05:24:01;;;;;;;38.40;32.27;;;7.50;99.90;;;;;;5011238;28;20038;-79
2022/11/26 05:26:27;;;;;;;41.10;32.17;;;7.60;99.90;;;;;;5010029;28;20042;-79
2022/11/26 05:28:53;;;;;;;35.60;31.63;;;7.80;99.90;;;;;;5002886;28;20057;-79
2022/11/26 05:31:19;;;;;;;36.27;30.73;;;7.90;99.90;;;;;;4995546;28;20042;-79
2022/11/26 05:33:46;;;;;;;34.37;29.97;;;7.70;99.90;;;;;;4994424;28;20391;-79
2022/11/26 05:36:12;;;;;;;37.13;31.90;;;7.60;99.90;;;;;;4994748;28;20021;-79
2022/11/26 05:38:38;;;;;;;35.23;31.77;;;7.70;99.90;;;;;;4995734;28;20419;-79
2022/11/26 05:41:04;;;;;;;36.63;32.90;;;7.60;99.90;;;;;;4986294;28;20023;-79
2022/11/26 05:43:30;;;;;;;35.40;31.83;;;7.40;99.90;;;;;;4976300;28;20591;-79
2022/11/26 05:45:56;;;;;;;34.27;30.67;;;7.20;99.90;;;;;;4998196;28;20030;-79
2022/11/26 05:48:22;;;;;;;35.23;31.60;;;7.10;99.90;;;;;;4995393;28;20030;-79
2022/11/26 05:50:48;;;;;;;34.83;31.10;;;7.00;99.90;;;;;;4992045;28;20038;-79
2022/11/26 05:53:14;;;;;;;33.27;29.67;;;6.90;99.90;;;;;;4974642;28;20419;-79
2022/11/26 05:55:40;;;;;;;34.67;30.97;;;6.90;99.90;;;;;;4980517;28;20026;-79
2022/11/26 05:58:08;;;;;;;33.40;29.87;;;7.00;99.90;;;;;;5010757;28;20038;-79
2022/11/26 06:00:34;;;;;;;35.53;31.23;;;7.10;99.90;;;;;;4995564;28;20035;-79
2022/11/26 06:03:00;;;;;;;35.17;30.40;;;7.30;99.90;;;;;;5010270;28;20041;-79
2022/11/26 06:05:26;;;;;;;32.97;28.80;;;7.20;99.90;;;;;;4994724;28;20035;-79
2022/11/26 06:07:53;;;;;;;32.50;29.13;;;7.10;99.90;;;;;;5009221;28;20038;-79
2022/11/26 06:10:19;;;;;;;31.63;28.43;;;7.10;99.90;;;;;;4993062;28;20407;-79
2022/11/26 06:12:45;;;;;;;33.43;30.00;;;7.10;99.90;;;;;;5010265;28;20475;-79
2022/11/26 06:15:11;;;;;;;30.97;27.50;;;7.10;99.90;;;;;;4990649;28;20053;-79
2022/11/26 06:17:37;;;;;;;32.60;29.03;;;7.00;99.90;;;;;;5001883;28;20369;-79
2022/11/26 06:20:04;;;;;;;36.33;31.83;;;6.90;99.90;;;;;;4971707;28;20403;-79
2022/11/26 06:22:34;;;;;;;33.70;29.27;;;7.00;99.90;;;;;;5010074;28;20061;-79
2022/11/26 06:25:00;;;;;;;32.63;29.47;;;7.10;99.90;;;;;;4992832;28;20042;-80
2022/11/26 06:27:26;;;;;;;33.83;30.40;;;7.30;99.90;;;;;;4997465;28;20797;-79
2022/11/26 06:29:52;;;;;;;34.93;31.23;;;7.40;99.90;;;;;;4993796;28;20041;-79
2022/11/26 06:32:18;;;;;;;33.57;30.37;;;7.50;99.90;;;;;;5024856;28;20035;-79
2022/11/26 06:34:44;;;;;;;34.60;30.93;;;7.50;99.90;;;;;;4994846;28;20041;-79
2022/11/26 06:37:10;;;;;;;33.27;30.17;;;7.50;99.90;;;;;;4994872;28;20468;-79
2022/11/26 06:39:37;;;;;;;33.10;29.60;;;7.30;99.90;;;;;;5025526;28;20049;-79
2022/11/26 06:42:03;;;;;;;34.77;31.20;;;7.10;99.90;;;;;;5009735;28;20030;-79
2022/11/26 06:44:29;;;;;;;34.03;30.77;;;7.20;99.90;;;;;;4993373;28;20034;-79
2022/11/26 06:46:55;;;;;;;33.30;29.93;;;7.20;99.90;;;;;;4992957;28;20045;-79
2022/11/26 06:49:21;;;;;;;32.50;29.30;;;7.20;99.90;;;;;;4994576;28;20037;-79
2022/11/26 06:51:47;;;;;;;33.27;30.37;;;7.20;99.90;;;;;;4994680;28;20030;-79
2022/11/26 06:54:13;;;;;;;32.77;29.57;;;7.40;99.90;;;;;;4975191;28;20065;-79
2022/11/26 06:56:39;;;;;;;33.13;29.83;;;7.40;99.90;;;;;;4993946;28;20038;-79
2022/11/26 06:59:05;;;;;;;34.03;30.43;;;7.40;99.90;;;;;;4994065;28;20486;-79
2022/11/26 07:01:31;;;;;;;38.83;34.83;;;7.30;99.90;;;;;;4992747;28;20045;-79
2022/11/26 07:03:58;;;;;;;32.43;29.23;;;7.20;99.90;;;;;;4992274;28;20030;-79
2022/11/26 07:06:25;;;;;;;31.40;28.23;;;7.30;99.90;;;;;;4994073;28;20041;-79
2022/11/26 07:08:53;;;;;;;33.03;30.03;;;7.40;99.90;;;;;;4991224;28;20030;-79
2022/11/26 07:11:19;;;;;;;32.97;29.63;;;7.50;99.90;;;;;;5008704;28;20065;-79
2022/11/26 07:13:45;;;;;;;32.00;28.83;;;7.40;99.90;;;;;;5008893;28;20049;-79
2022/11/26 07:16:11;;;;;;;27.43;24.73;;;7.20;99.90;;;;;;4998091;28;20030;-81
2022/11/26 07:18:37;;;;;;;34.40;29.47;;;7.20;99.90;;;;;;5023046;28;20416;-78
2022/11/26 07:21:05;;;;;;;35.53;28.20;;;7.30;99.90;;;;;;5005728;28;20277;-78
2022/11/26 07:23:31;;;;;;;34.30;30.73;;;7.40;99.90;;;;;;4973482;28;20046;-80
2022/11/26 07:26:01;;;;;;;34.17;31.10;;;7.40;99.90;;;;;;4970985;28;20416;-78
2022/11/26 07:28:27;;;;;;;36.30;30.43;;;7.30;99.90;;;;;;5002075;28;20039;-78
2022/11/26 07:30:53;;;;;;;32.97;29.77;;;6.90;99.90;;;;;;4994815;28;20034;-79
2022/11/26 07:33:20;;;;;;;33.80;30.43;;;6.90;99.90;;;;;;4959497;28;20057;-81
2022/11/26 07:35:46;;;;;;;32.37;28.97;;;6.90;99.90;;;;;;4997628;28;20391;-82
2022/11/26 07:38:12;;;;;;;31.87;28.87;;;6.80;99.90;;;;;;4993533;28;20034;-83
2022/11/26 07:40:38;;;;;;;30.57;27.23;;;6.70;99.90;;;;;;4989540;28;20030;-83
2022/11/26 07:43:04;;;;;;;29.17;26.43;;;6.60;99.90;;;;;;4991245;28;20042;-80
2022/11/26 07:45:30;;;;;;;29.13;26.00;;;6.50;99.90;;;;;;4992935;28;20042;-80
2022/11/26 07:47:56;;;;;;;31.10;28.07;;;6.60;99.90;;;;;;4992924;28;20043;-79
2022/11/26 07:50:22;;;;;;;32.70;28.83;;;6.70;99.90;;;;;;4983525;28;20057;-79
2022/11/26 07:52:51;;;;;;;33.20;27.93;;;6.80;99.90;;;;;;4991434;28;20030;-80
2022/11/26 07:55:17;;;;;;;29.50;27.00;;;6.90;99.90;;;;;;5007849;28;20034;-79
2022/11/26 07:57:43;;;;;;;32.63;27.40;;;7.00;99.90;;;;;;4991355;28;20046;-78
2022/11/26 08:00:10;;;;;;;31.90;27.97;;;7.00;99.90;;;;;;4992678;28;20030;-79
2022/11/26 08:02:36;;;;;;;32.30;29.33;;;7.10;99.90;;;;;;4981692;28;20049;-78
2022/11/26 08:05:02;;;;;;;32.73;28.57;;;7.20;99.90;;;;;;4991615;28;20471;-79
2022/11/26 08:07:28;;;;;;;35.37;31.73;;;7.20;99.90;;;;;;4978349;28;20061;-79
2022/11/26 08:09:54;;;;;;;33.63;30.13;;;7.00;99.90;;;;;;5007806;28;20035;-82
2022/11/26 08:12:20;;;;;;;32.33;29.10;;;6.90;99.90;;;;;;4988453;28;20043;-79
2022/11/26 08:14:47;;;;;;;32.17;29.13;;;6.90;99.90;;;;;;4992834;28;20042;-79
2022/11/26 08:17:13;;;;;;;30.87;27.87;;;6.90;99.90;;;;;;5002465;28;20041;-80
2022/11/26 08:19:39;;;;;;;34.33;29.10;;;6.90;99.90;;;;;;4990936;28;20039;-81
2022/11/26 08:22:05;;;;;;;30.10;27.27;;;6.90;99.90;;;;;;4984313;28;20479;-81
2022/11/26 08:24:31;;;;;;;31.63;27.00;;;6.90;99.90;;;;;;5007863;28;20030;-81
2022/11/26 08:26:58;;;;;;;30.20;27.23;;;6.80;99.90;;;;;;5007906;28;20521;-81
2022/11/26 08:29:24;;;;;;;30.43;27.17;;;6.90;99.90;;;;;;5008070;28;20042;-80
2022/11/26 08:31:50;;;;;;;30.03;26.77;;;6.90;99.90;;;;;;4988308;28;20071;-82
2022/11/26 08:34:17;;;;;;;30.63;27.23;;;6.90;99.90;;;;;;5002320;28;20053;-79
2022/11/26 08:36:43;;;;;;;31.43;28.37;;;7.10;99.90;;;;;;4966340;28;20031;-81
2022/11/26 08:39:14;;;;;;;31.40;28.17;;;7.10;99.90;;;;;;4993936;28;20386;-81
2022/11/26 08:41:40;;;;;;;33.25;28.50;;;7.00;99.90;;;;;;4997564;28;20023;-83
2022/11/26 08:44:06;;;;;;;31.87;28.87;;;7.00;99.90;;;;;;4984960;28;20038;-81
2022/11/26 08:46:32;;;;;;;33.30;29.83;;;7.10;99.90;;;;;;4990604;28;20038;-81
2022/11/26 08:48:58;;;;;;;34.30;31.00;;;7.10;99.90;;;;;;4991942;28;20035;-81
2022/11/26 08:51:24;;;;;;;37.97;34.03;;;7.20;99.90;;;;;;4990977;28;20034;-81
2022/11/26 08:53:51;;;;;;;38.13;34.93;;;7.40;99.90;;;;;;4974395;28;20034;-80
2022/11/26 08:56:17;;;;;;;37.67;34.53;;;7.50;99.90;;;;;;4993658;28;20030;-82
2022/11/26 08:58:44;;;;;;;36.83;33.33;;;7.60;99.90;;;;;;5003811;28;20388;-82
2022/11/26 09:01:11;;;;;;;33.93;30.80;;;7.50;99.90;;;;;;4992316;28;20400;-81
2022/11/26 09:03:37;;;;;;;36.47;33.47;;;7.50;99.90;;;;;;5003319;28;20411;-80
2022/11/26 09:06:04;;;;;;;34.65;31.73;;;7.60;99.90;;;;;;4999732;28;20037;-80
2022/11/26 09:08:33;;;;;;;37.70;33.85;;;7.50;99.90;;;;;;5005611;28;20387;-80
2022/11/26 09:10:59;;;;;;;39.13;35.63;;;7.50;99.90;;;;;;4971746;28;20030;-80
2022/11/26 09:13:25;;;;;;;38.73;34.93;;;7.70;99.90;;;;;;4971572;28;20043;-83
2022/11/26 09:15:51;;;;;;;37.47;34.43;;;7.80;99.90;;;;;;4988235;28;20038;-81
2022/11/26 09:18:17;;;;;;;34.10;31.03;;;7.80;99.90;;;;;;4990869;28;20031;-83
2022/11/26 09:20:43;;;;;;;32.30;29.00;;;7.80;99.90;;;;;;5007166;28;20030;-84
2022/11/26 09:23:09;;;;;;;36.57;33.30;;;7.80;99.90;;;;;;4991198;28;20033;-81
2022/11/26 09:25:39;;;;;;;36.00;33.25;;;7.80;99.90;;;;;;4991109;28;20050;-80
2022/11/26 09:28:05;;;;;;;36.57;33.07;;;7.90;99.90;;;;;;4988601;28;20026;-82
2022/11/26 09:30:32;;;;;;;38.88;35.75;;;8.00;99.90;;;;;;5004626;28;20038;-82
2022/11/26 09:32:58;;;;;;;41.45;37.72;;;8.00;99.90;;;;;;5010889;28;20034;-83
2022/11/26 09:35:24;;;;;;;41.63;37.47;;;8.10;99.90;;;;;;4993406;28;20038;-82
2022/11/26 09:37:50;;;;;;;41.70;37.65;;;8.20;99.90;;;;;;4983449;28;20026;-83
2022/11/26 09:40:17;;;;;;;39.65;36.70;;;8.30;99.90;;;;;;4971044;28;20033;-83
2022/11/26 09:43:06;;;;;;;38.67;35.17;;;8.40;99.90;;;;;;5005411;28;20035;-85
2022/11/26 09:45:52;;;;;;;38.80;35.45;;;8.40;99.90;;;;;;4991140;28;20038;-82
2022/11/26 09:48:20;;;;;;;40.53;36.97;;;8.60;99.90;;;;;;5007842;28;20027;-83
2022/11/26 09:50:47;;;;;;;31.00;27.92;;;8.70;99.90;;;;;;4991024;28;20030;-82
2022/11/26 09:53:21;;;;;;;30.65;27.63;;;8.80;99.90;;;;;;4990776;28;20046;-83
2022/11/26 09:55:49;;;;;;;31.88;29.05;;;8.80;99.90;;;;;;4993595;28;20035;-83
2022/11/26 09:58:26;;;;;;;29.98;27.23;;;8.90;99.90;;;;;;4961617;28;20046;-82
2022/11/26 10:00:53;;;;;;;29.45;26.75;;;9.00;99.90;;;;;;4989952;28;20039;-81
2022/11/26 10:03:21;;;;;;;27.38;24.58;;;9.10;99.90;;;;;;4957959;28;20039;-81
2022/11/26 10:05:52;;;;;;;30.27;27.42;;;9.20;99.90;;;;;;4979092;28;20038;-82
2022/11/26 10:08:37;;;;;;;29.02;25.50;;;9.30;99.90;;;;;;5003417;28;20514;-81
2022/11/26 10:11:16;;;;;;;28.20;25.60;;;9.40;99.90;;;;;;4995379;28;20033;-81
2022/11/26 10:13:48;;;;;;;28.60;25.48;;;9.40;99.90;;;;;;4992750;28;20050;-80
2022/11/26 10:16:14;;;;;;;28.52;25.52;;;9.50;99.90;;;;;;4996633;28;20026;-80
2022/11/26 10:19:06;;;;;;;26.67;24.23;;;9.60;99.90;;;;;;5012134;28;20045;-80
2022/11/26 10:21:43;;;;;;;29.30;24.00;;;9.70;99.90;;;;;;5009565;28;20511;-80
2022/11/26 10:24:19;;;;;;;29.40;26.08;;;9.70;99.90;;;;;;5025700;28;20035;-81
2022/11/26 10:26:45;;;;;;;30.05;26.55;;;9.70;99.90;;;;;;5009309;28;20030;-80
2022/11/26 10:29:33;;;;;;;29.75;27.13;;;9.80;99.90;;;;;;4978332;28;20033;-80
2022/11/26 10:32:11;;;;;;;28.92;26.17;;;9.90;99.90;;;;;;4957833;28;20031;-81
2022/11/26 10:34:55;;;;;;;35.22;31.10;;;10.00;99.90;;;;;;4993708;28;20064;-81
2022/11/26 10:37:22;;;;;;;36.72;33.50;;;10.00;99.90;;;;;;4972431;28;20025;-80
2022/11/26 10:39:50;;;;;;;32.85;29.77;;;10.10;99.90;;;;;;4999676;28;20083;-80
2022/11/26 10:42:18;;;;;;;23.85;21.10;;;10.20;99.90;;;;;;4995072;28;20018;-80
2022/11/26 10:44:44;;;;;;;28.30;21.02;;;10.30;99.90;;;;;;5004572;28;20057;-81
2022/11/26 10:47:31;;;;;;;29.30;21.13;;;10.40;99.90;;;;;;5006735;28;20031;-83
2022/11/26 10:50:03;;;;;;;28.95;22.88;;;10.50;99.90;;;;;;4993107;28;20034;-82
2022/11/26 10:52:31;;;;;;;30.17;26.70;;;10.60;99.90;;;;;;4988731;28;20038;-79
2022/11/26 10:55:09;;;;;;;28.08;22.45;;;10.60;99.90;;;;;;5001942;28;20038;-79
2022/11/26 10:57:35;;;;;;;30.70;20.30;;;10.70;99.90;;;;;;4993224;28;20030;-80
2022/11/26 11:00:02;;;;;;;28.40;20.67;;;10.80;99.90;;;;;;4976950;28;20022;-80
2022/11/26 11:02:29;;;;;;;31.80;21.65;;;10.90;99.90;;;;;;4958961;28;20038;-82
2022/11/26 11:04:56;;;;;;;29.95;18.50;;;11.00;99.90;;;;;;4973587;28;20039;-82
2022/11/26 11:07:38;;;;;;;28.40;17.42;;;11.00;99.90;;;;;;4953077;28;20046;-83
2022/11/26 11:10:08;;;;;;;23.63;16.70;;;11.10;99.90;;;;;;4974053;28;20353;-83
2022/11/26 11:12:34;;;;;;;26.10;16.77;;;11.20;99.90;;;;;;4972730;28;20038;-83
2022/11/26 11:15:21;;;;;;;31.13;17.30;;;11.30;99.90;;;;;;4974308;28;20447;-83
2022/11/26 11:18:17;;;;;;;27.75;16.10;;;11.40;99.90;;;;;;4988074;28;20034;-84
2022/11/26 11:20:51;;;;;;;29.40;17.83;;;11.50;99.90;;;;;;4967806;28;20045;-84
2022/11/26 11:23:36;;;;;;;29.98;16.30;;;11.60;99.90;;;;;;4968695;28;20026;-83
2022/11/26 11:26:16;;;;;;;26.90;16.27;;;11.60;99.90;;;;;;4972485;28;20047;-83
2022/11/26 11:28:46;;;;;;;20.50;14.52;;;11.70;99.90;;;;;;4972557;28;20050;-83
2022/11/26 11:31:17;;;;;;;29.70;15.75;;;11.70;99.90;;;;;;4965057;28;20034;-83
2022/11/26 11:33:43;;;;;;;26.95;15.43;;;11.70;99.90;;;;;;4984629;28;20479;-83
2022/11/26 11:36:12;;;;;;;25.83;15.63;;;11.70;99.90;;;;;;4988396;28;20061;-83
2022/11/26 11:38:46;;;;;;;37.83;15.90;;;11.70;99.90;;;;;;4977466;28;20065;-83
2022/11/26 11:41:44;;;;;;;26.15;15.38;;;11.80;99.90;;;;;;4986584;28;20019;-82
2022/11/26 11:44:20;;;;;;;18.58;13.90;;;11.80;99.90;;;;;;4989196;28;20038;-83
2022/11/26 11:47:03;;;;;;;23.50;15.23;;;11.90;99.90;;;;;;4988759;28;20038;-83
2022/11/26 11:49:29;;;;;;;25.45;15.48;;;12.00;99.90;;;;;;4976864;28;20043;-84
2022/11/26 11:52:23;;;;;;;26.08;15.32;;;12.10;99.90;;;;;;4992276;28;20030;-83
2022/11/26 11:55:11;;;;;;;24.65;14.73;;;12.10;99.90;;;;;;5008030;28;20038;-84
2022/11/26 11:58:00;;;;;;;25.45;14.07;;;12.20;99.90;;;;;;4992800;28;20498;-83
2022/11/26 12:00:59;;;;;;;24.27;14.60;;;12.20;99.90;;;;;;4991268;28;20042;-83
2022/11/26 12:03:28;;;;;;;36.30;14.63;;;12.20;99.90;;;;;;4974115;28;20043;-80
2022/11/26 12:06:12;;;;;;;25.00;14.40;;;12.20;99.90;;;;;;4973579;28;20023;-83
2022/11/26 12:09:23;;;;;;;23.40;14.77;;;12.20;99.90;;;;;;4985710;28;20034;-81
2022/11/26 12:12:20;;;;;;;31.48;14.13;;;12.10;99.90;;;;;;4968052;28;20043;-81
2022/11/26 12:15:00;;;;;;;22.33;13.85;;;12.10;99.90;;;;;;4952468;28;20057;-81
2022/11/26 12:17:33;;;;;;;21.08;13.57;;;12.10;99.90;;;;;;4953446;28;20046;-81
2022/11/26 12:20:19;;;;;;;22.77;16.45;;;12.20;99.90;;;;;;4951707;28;20050;-81
2022/11/26 12:22:49;;;;;;;27.13;16.05;;;12.20;99.90;;;;;;4966392;28;20041;-81
2022/11/26 12:25:24;;;;;;;26.27;17.15;;;12.30;99.90;;;;;;4954878;28;20055;-81
2022/11/26 12:27:59;;;;;;;26.70;16.85;;;12.30;99.90;;;;;;4954469;28;20102;-81
2022/11/26 12:30:30;;;;;;;22.42;15.55;;;12.40;99.90;;;;;;4971018;28;20038;-81
2022/11/26 12:32:58;;;;;;;;;;;12.50;99.90;;;;;;4922299;28;20039;-81
2022/11/26 12:35:29;;;;;;;23.80;14.38;;;12.50;99.90;;;;;;4935941;28;19934;-81
2022/11/26 12:38:06;;;;;;;23.48;15.13;;;12.60;99.90;;;;;;4936304;28;20053;-81
2022/11/26 12:40:56;;;;;;;27.75;16.20;;;12.70;99.90;;;;;;4921363;28;20079;-81
2022/11/26 12:43:41;;;;;;;26.20;15.80;;;12.70;99.90;;;;;;4952247;28;20043;-81
2022/11/26 12:46:09;;;;;;;24.20;14.63;;;12.80;99.90;;;;;;4952671;28;20057;-81
2022/11/26 12:48:54;;;;;;;30.98;15.18;;;12.80;99.90;;;;;;4951958;28;20046;-81